Time,TemperatureF,DewpointF,PressureIn,WindDirection,WindDirectionDegrees,WindSpeedMPH,WindSpeedGustMPH,Humidity,HourlyPrecipIn,Conditions,Clouds,dailyrainin,SoftwareType,DateUTC
2013-06-16 00:00:00,58.1,52.3,29.98,North,360,0.0,0.0,81,0.00,,---,0.00,VWS V14.01,2013-06-16 04:00:00,
2013-06-16 00:01:00,58.1,52.6,29.98,North,360,0.0,0.0,82,0.00,,---,0.00,VWS V14.01,2013-06-16 04:01:00,
2013-06-16 00:06:00,58.0,52.5,29.99,North,360,0.0,0.0,82,0.00,,---,0.00,VWS V14.01,2013-06-16 04:06:00,
2013-06-16 00:11:00,57.8,52.3,29.99,North,360,0.0,0.0,82,0.00,,---,0.00,VWS V14.01,2013-06-16 04:11:00,
2013-06-16 00:16:00,57.6,52.2,29.99,North,360,0.0,0.0,82,0.00,,---,0.00,VWS V14.01,2013-06-16 04:16:00,
2013-06-16 00:21:00,57.5,52.1,29.98,North,360,0.0,0.0,82,0.00,,---,0.00,VWS V14.01,2013-06-16 04:21:00,
2013-06-16 00:26:00,57.5,52.4,29.98,North,360,0.0,0.0,83,0.00,,---,0.00,VWS V14.01,2013-06-16 04:26:00,
2013-06-16 00:31:00,57.5,52.4,29.98,North,360,0.0,0.0,83,0.00,,---,0.00,VWS V14.01,2013-06-16 04:31:00,
2013-06-16 00:36:00,57.5,52.7,29.98,North,360,0.0,0.0,84,0.00,,---,0.00,VWS V14.01,2013-06-16 04:36:00,
2013-06-16 00:41:00,57.5,53.0,29.98,North,360,0.0,0.0,85,0.00,,---,0.00,VWS V14.01,2013-06-16 04:41:00,
2013-06-16 00:46:00,57.5,53.3,29.98,North,360,0.0,0.0,86,0.00,,---,0.00,VWS V14.01,2013-06-16 04:46:00,
2013-06-16 00:51:00,57.5,53.3,29.98,North,360,0.0,0.0,86,0.00,,---,0.00,VWS V14.01,2013-06-16 04:51:00,
2013-06-16 00:56:00,57.5,53.3,29.98,North,360,0.0,0.0,86,0.00,,---,0.00,VWS V14.01,2013-06-16 04:56:00,
2013-06-16 00:57:00,57.5,53.3,29.98,North,360,0.0,0.0,86,0.00,,---,0.00,VWS V14.01,2013-06-16 04:57:00,
2013-06-16 01:01:00,57.5,53.3,29.98,North,360,0.0,0.0,86,0.00,,---,0.00,VWS V14.01,2013-06-16 05:01:00,
2013-06-16 01:02:00,57.5,53.3,29.97,North,360,0.0,0.0,86,0.00,,---,0.00,VWS V14.01,2013-06-16 05:02:00,
2013-06-16 01:06:00,57.5,53.3,29.97,North,360,0.0,0.0,86,0.00,,---,0.00,VWS V14.01,2013-06-16 05:06:00,
2013-06-16 01:07:00,57.5,53.3,29.97,North,360,0.0,0.0,86,0.00,,---,0.00,VWS V14.01,2013-06-16 05:07:00,
2013-06-16 01:11:00,57.5,53.7,29.97,North,360,0.0,0.0,87,0.00,,---,0.00,VWS V14.01,2013-06-16 05:11:00,
2013-06-16 01:12:00,57.5,53.7,29.97,North,360,0.0,0.0,87,0.00,,---,0.00,VWS V14.01,2013-06-16 05:12:00,
2013-06-16 01:16:00,57.5,53.7,29.97,North,360,0.0,0.0,87,0.00,,---,0.00,VWS V14.01,2013-06-16 05:16:00,
2013-06-16 01:17:00,57.5,53.7,29.97,North,360,0.0,0.0,87,0.00,,---,0.00,VWS V14.01,2013-06-16 05:17:00,
2013-06-16 01:21:00,57.5,53.7,29.97,North,360,0.0,0.0,87,0.00,,---,0.00,VWS V14.01,2013-06-16 05:21:00,
2013-06-16 01:22:00,57.5,53.7,29.97,North,360,0.0,0.0,87,0.00,,---,0.00,VWS V14.01,2013-06-16 05:22:00,
2013-06-16 01:26:00,57.5,53.7,29.97,North,360,0.0,0.0,87,0.00,,---,0.00,VWS V14.01,2013-06-16 05:26:00,
2013-06-16 01:27:00,57.5,53.7,29.97,North,360,0.0,0.0,87,0.00,,---,0.00,VWS V14.01,2013-06-16 05:27:00,
2013-06-16 01:31:00,57.5,53.3,29.97,North,360,0.0,0.0,86,0.00,,---,0.00,VWS V14.01,2013-06-16 05:31:00,
2013-06-16 01:32:00,57.5,53.3,29.97,North,360,0.0,0.0,86,0.00,,---,0.00,VWS V14.01,2013-06-16 05:32:00,
2013-06-16 01:36:00,57.5,53.7,29.96,North,360,0.0,0.0,87,0.00,,---,0.00,VWS V14.01,2013-06-16 05:36:00,
2013-06-16 01:37:00,57.5,53.7,29.96,North,360,0.0,0.0,87,0.00,,---,0.00,VWS V14.01,2013-06-16 05:37:00,
2013-06-16 01:41:00,57.3,53.5,29.96,North,360,0.0,0.0,87,0.00,,---,0.00,VWS V14.01,2013-06-16 05:41:00,
2013-06-16 01:42:00,57.3,53.5,29.96,North,360,0.0,0.0,87,0.00,,---,0.00,VWS V14.01,2013-06-16 05:42:00,
2013-06-16 01:46:00,57.3,53.5,29.96,North,360,0.0,0.0,87,0.00,,---,0.00,VWS V14.01,2013-06-16 05:46:00,
2013-06-16 01:47:00,57.3,53.5,29.96,North,360,0.0,0.0,87,0.00,,---,0.00,VWS V14.01,2013-06-16 05:47:00,
2013-06-16 01:51:00,57.3,53.2,29.97,North,360,0.0,0.0,86,0.00,,---,0.00,VWS V14.01,2013-06-16 05:51:00,
2013-06-16 01:52:00,57.3,53.2,29.97,North,360,0.0,1.0,86,0.00,,---,0.00,VWS V14.01,2013-06-16 05:52:00,
2013-06-16 01:56:00,57.2,53.1,29.97,North,360,0.0,1.0,86,0.00,,---,0.00,VWS V14.01,2013-06-16 05:56:00,
2013-06-16 01:57:00,57.2,53.1,29.97,North,360,0.0,1.0,86,0.00,,---,0.00,VWS V14.01,2013-06-16 05:57:00,
2013-06-16 02:01:00,57.2,53.1,29.97,North,360,0.0,0.0,86,0.00,,---,0.00,VWS V14.01,2013-06-16 06:01:00,
2013-06-16 02:02:00,57.2,53.1,29.97,North,360,0.0,0.0,86,0.00,,---,0.00,VWS V14.01,2013-06-16 06:02:00,
2013-06-16 02:03:00,57.2,53.1,29.97,North,360,0.0,0.0,86,0.00,,---,0.00,VWS V14.01,2013-06-16 06:03:00,
2013-06-16 02:06:00,57.0,52.9,29.97,North,360,0.0,0.0,86,0.00,,---,0.00,VWS V14.01,2013-06-16 06:06:00,
2013-06-16 02:07:00,57.0,52.9,29.97,North,360,0.0,0.0,86,0.00,,---,0.00,VWS V14.01,2013-06-16 06:07:00,
2013-06-16 02:08:00,57.0,52.9,29.97,North,360,0.0,0.0,86,0.00,,---,0.00,VWS V14.01,2013-06-16 06:08:00,
2013-06-16 02:11:00,57.0,52.9,29.97,North,360,0.0,0.0,86,0.00,,---,0.00,VWS V14.01,2013-06-16 06:11:00,
2013-06-16 02:12:00,57.0,52.9,29.97,North,360,0.0,0.0,86,0.00,,---,0.00,VWS V14.01,2013-06-16 06:12:00,
2013-06-16 02:13:00,57.0,52.9,29.97,North,360,0.0,0.0,86,0.00,,---,0.00,VWS V14.01,2013-06-16 06:13:00,
2013-06-16 02:17:00,56.9,52.8,29.97,North,360,0.0,0.0,86,0.00,,---,0.00,VWS V14.01,2013-06-16 06:17:00,
2013-06-16 02:18:00,56.9,52.8,29.96,North,360,0.0,0.0,86,0.00,,---,0.00,VWS V14.01,2013-06-16 06:18:00,
2013-06-16 02:22:00,56.9,52.8,29.96,North,360,0.0,0.0,86,0.00,,---,0.00,VWS V14.01,2013-06-16 06:22:00,
2013-06-16 02:23:00,56.9,52.8,29.96,North,360,0.0,0.0,86,0.00,,---,0.00,VWS V14.01,2013-06-16 06:23:00,
2013-06-16 02:27:00,56.9,53.1,29.96,North,360,0.0,0.0,87,0.00,,---,0.00,VWS V14.01,2013-06-16 06:27:00,
2013-06-16 02:28:00,56.9,53.1,29.96,North,360,0.0,0.0,87,0.00,,---,0.00,VWS V14.01,2013-06-16 06:28:00,
2013-06-16 02:32:00,56.7,52.9,29.96,North,360,0.0,0.0,87,0.00,,---,0.00,VWS V14.01,2013-06-16 06:32:00,
2013-06-16 02:33:00,56.7,52.9,29.96,North,360,0.0,0.0,87,0.00,,---,0.00,VWS V14.01,2013-06-16 06:33:00,
2013-06-16 02:37:00,56.7,52.9,29.96,North,360,0.0,0.0,87,0.00,,---,0.00,VWS V14.01,2013-06-16 06:37:00,
2013-06-16 02:38:00,56.7,52.9,29.96,North,360,0.0,0.0,87,0.00,,---,0.00,VWS V14.01,2013-06-16 06:38:00,
2013-06-16 02:42:00,56.7,52.9,29.96,North,360,0.0,0.0,87,0.00,,---,0.00,VWS V14.01,2013-06-16 06:42:00,
2013-06-16 02:43:00,56.7,52.9,29.96,North,360,0.0,0.0,87,0.00,,---,0.00,VWS V14.01,2013-06-16 06:43:00,
2013-06-16 02:44:00,56.7,52.9,29.96,North,360,0.0,0.0,87,0.00,,---,0.00,VWS V14.01,2013-06-16 06:44:00,
2013-06-16 02:47:00,56.7,52.9,29.96,North,360,0.0,0.0,87,0.00,,---,0.00,VWS V14.01,2013-06-16 06:47:00,
2013-06-16 02:48:00,56.7,52.9,29.96,North,360,0.0,0.0,87,0.00,,---,0.00,VWS V14.01,2013-06-16 06:48:00,
2013-06-16 02:49:00,56.7,52.9,29.96,North,360,0.0,0.0,87,0.00,,---,0.00,VWS V14.01,2013-06-16 06:49:00,
2013-06-16 02:52:00,56.7,52.9,29.96,North,360,0.0,0.0,87,0.00,,---,0.00,VWS V14.01,2013-06-16 06:52:00,
2013-06-16 02:53:00,56.7,52.9,29.96,North,360,0.0,0.0,87,0.00,,---,0.00,VWS V14.01,2013-06-16 06:53:00,
2013-06-16 02:54:00,56.6,53.1,29.96,North,360,0.0,0.0,88,0.00,,---,0.00,VWS V14.01,2013-06-16 06:54:00,
2013-06-16 02:57:00,56.6,53.1,29.96,North,360,0.0,0.0,88,0.00,,---,0.00,VWS V14.01,2013-06-16 06:57:00,
2013-06-16 02:58:00,56.6,53.1,29.96,North,360,0.0,0.0,88,0.00,,---,0.00,VWS V14.01,2013-06-16 06:58:00,
2013-06-16 02:59:00,56.6,53.1,29.96,North,360,0.0,0.0,88,0.00,,---,0.00,VWS V14.01,2013-06-16 06:59:00,
2013-06-16 03:02:00,56.7,53.2,29.96,North,360,0.0,0.0,88,0.00,,---,0.00,VWS V14.01,2013-06-16 07:02:00,
2013-06-16 03:03:00,56.7,53.2,29.96,North,360,0.0,0.0,88,0.00,,---,0.00,VWS V14.01,2013-06-16 07:03:00,
2013-06-16 03:04:00,56.7,53.2,29.96,North,360,0.0,0.0,88,0.00,,---,0.00,VWS V14.01,2013-06-16 07:04:00,
2013-06-16 03:07:00,56.9,53.7,29.96,North,360,0.0,0.0,89,0.00,,---,0.00,VWS V14.01,2013-06-16 07:07:00,
2013-06-16 03:08:00,56.9,53.7,29.96,North,360,0.0,0.0,89,0.00,,---,0.00,VWS V14.01,2013-06-16 07:08:00,
2013-06-16 03:09:00,56.9,53.7,29.96,North,360,0.0,0.0,89,0.00,,---,0.00,VWS V14.01,2013-06-16 07:09:00,
2013-06-16 03:12:00,56.9,53.7,29.96,North,360,0.0,0.0,89,0.00,,---,0.00,VWS V14.01,2013-06-16 07:12:00,
2013-06-16 03:13:00,56.9,53.7,29.96,North,360,0.0,0.0,89,0.00,,---,0.00,VWS V14.01,2013-06-16 07:13:00,
2013-06-16 03:14:00,56.9,53.7,29.96,North,360,0.0,0.0,89,0.00,,---,0.00,VWS V14.01,2013-06-16 07:14:00,
2013-06-16 03:17:00,56.9,53.7,29.95,North,360,0.0,0.0,89,0.00,,---,0.00,VWS V14.01,2013-06-16 07:17:00,
2013-06-16 10:03:00,72.8,63.3,29.91,SSW,202,1.0,5.0,72,0.00,,---,0.00,VWS V14.01,2013-06-16 14:03:00,
2013-06-16 10:15:00,74.0,62.4,29.91,SSW,193,5.0,5.0,67,0.00,,---,0.00,VWS V14.01,2013-06-16 14:15:00,
2013-06-16 10:16:00,74.0,62.4,29.91,SSW,193,2.0,5.0,67,0.00,,---,0.00,VWS V14.01,2013-06-16 14:16:00,
2013-06-16 10:20:00,74.6,62.9,29.90,SSW,201,7.0,7.0,67,0.00,,---,0.00,VWS V14.01,2013-06-16 14:20:00,
2013-06-16 10:21:00,74.6,62.9,29.90,SSW,202,10.0,10.0,67,0.00,,---,0.00,VWS V14.01,2013-06-16 14:21:00,
2013-06-16 10:25:00,75.3,64.4,29.90,SSE,167,3.0,4.0,69,0.00,,---,0.00,VWS V14.01,2013-06-16 14:25:00,
2013-06-16 10:26:00,75.3,64.4,29.90,SSE,167,3.0,4.0,69,0.00,,---,0.00,VWS V14.01,2013-06-16 14:26:00,
2013-06-16 10:31:00,75.8,64.1,29.90,South,181,2.0,10.0,67,0.00,,---,0.00,VWS V14.01,2013-06-16 14:31:00,
2013-06-16 10:36:00,76.5,65.2,29.90,SW,218,1.0,2.0,68,0.00,,---,0.00,VWS V14.01,2013-06-16 14:36:00,
2013-06-16 10:41:00,76.8,64.6,29.90,South,178,4.0,9.0,66,0.00,,---,0.00,VWS V14.01,2013-06-16 14:41:00,
2013-06-16 10:46:00,77.0,64.3,29.90,SW,228,7.0,7.0,65,0.00,,---,0.00,VWS V14.01,2013-06-16 14:46:00,
2013-06-16 10:51:00,77.2,65.0,29.90,SW,217,0.0,1.0,66,0.00,,---,0.00,VWS V14.01,2013-06-16 14:51:00,
2013-06-16 10:56:00,77.4,64.7,29.90,SSW,206,1.0,3.0,65,0.00,,---,0.00,VWS V14.01,2013-06-16 14:56:00,
2013-06-16 11:01:00,77.6,65.8,29.90,SSW,206,2.0,2.0,67,0.00,,---,0.00,VWS V14.01,2013-06-16 15:01:00,
2013-06-16 11:06:00,78.1,66.3,29.89,SSW,192,4.0,4.0,67,0.00,,---,0.00,VWS V14.01,2013-06-16 15:06:00,
2013-06-16 11:11:00,78.5,65.8,29.89,SSW,207,5.0,7.0,65,0.00,,---,0.00,VWS V14.01,2013-06-16 15:11:00,
2013-06-16 11:12:00,78.5,64.9,29.89,SSW,208,4.0,7.0,63,0.00,,---,0.00,VWS V14.01,2013-06-16 15:12:00,
2013-06-16 11:16:00,78.8,67.4,29.89,SSW,200,0.0,0.0,68,0.00,,---,0.00,VWS V14.01,2013-06-16 15:16:00,
2013-06-16 11:17:00,78.8,66.9,29.89,SSW,200,0.0,1.0,67,0.00,,---,0.00,VWS V14.01,2013-06-16 15:17:00,
2013-06-16 11:21:00,79.0,66.2,29.88,SSE,155,2.0,2.0,65,0.00,,---,0.00,VWS V14.01,2013-06-16 15:21:00,
2013-06-16 11:22:00,79.0,66.2,29.88,SSE,155,0.0,2.0,65,0.00,,---,0.00,VWS V14.01,2013-06-16 15:22:00,
2013-06-16 11:26:00,79.4,67.1,29.88,SSW,201,11.0,11.0,66,0.00,,---,0.00,VWS V14.01,2013-06-16 15:26:00,
2013-06-16 11:27:00,79.4,67.9,29.88,SSW,206,3.0,4.0,68,0.00,,---,0.00,VWS V14.01,2013-06-16 15:27:00,
2013-06-16 11:31:00,79.4,65.7,29.88,SSW,205,6.0,8.0,63,0.00,,---,0.00,VWS V14.01,2013-06-16 15:31:00,
2013-06-16 11:32:00,79.4,65.7,29.88,SW,220,4.0,8.0,63,0.00,,---,0.00,VWS V14.01,2013-06-16 15:32:00,
2013-06-16 11:36:00,79.6,65.9,29.88,SW,214,0.0,0.0,63,0.00,,---,0.00,VWS V14.01,2013-06-16 15:36:00,
2013-06-16 11:37:00,79.6,66.4,29.88,South,184,4.0,7.0,64,0.00,,---,0.00,VWS V14.01,2013-06-16 15:37:00,
2013-06-16 11:41:00,79.8,66.6,29.88,SSW,203,10.0,11.0,64,0.00,,---,0.00,VWS V14.01,2013-06-16 15:41:00,
2013-06-16 11:42:00,79.8,66.6,29.88,SW,219,5.0,11.0,64,0.00,,---,0.00,VWS V14.01,2013-06-16 15:42:00,
2013-06-16 11:46:00,80.1,67.3,29.88,SW,215,0.0,4.0,65,0.00,,---,0.00,VWS V14.01,2013-06-16 15:46:00,
2013-06-16 11:47:00,80.1,67.3,29.88,SSW,200,2.0,6.0,65,0.00,,---,0.00,VWS V14.01,2013-06-16 15:47:00,
2013-06-16 11:51:00,80.3,66.6,29.88,SW,216,1.0,3.0,63,0.00,,---,0.00,VWS V14.01,2013-06-16 15:51:00,
2013-06-16 11:52:00,80.3,66.6,29.88,SW,216,1.0,3.0,63,0.00,,---,0.00,VWS V14.01,2013-06-16 15:52:00,
2013-06-16 11:56:00,80.7,67.4,29.88,SW,214,5.0,5.0,64,0.00,,---,0.00,VWS V14.01,2013-06-16 15:56:00,
2013-06-16 11:57:00,80.5,67.2,29.88,SSW,205,0.0,9.0,64,0.00,,---,0.00,VWS V14.01,2013-06-16 15:57:00,
2013-06-16 12:01:00,80.7,66.9,29.88,West,272,4.0,11.0,63,0.00,,---,0.00,VWS V14.01,2013-06-16 16:01:00,
2013-06-16 12:02:00,80.7,66.0,29.88,WSW,245,7.0,12.0,61,0.00,,---,0.00,VWS V14.01,2013-06-16 16:02:00,
2013-06-16 12:06:00,80.7,65.5,29.88,SW,220,0.0,9.0,60,0.00,,---,0.00,VWS V14.01,2013-06-16 16:06:00,
2013-06-16 12:07:00,80.7,66.0,29.88,SW,220,1.0,1.0,61,0.00,,---,0.00,VWS V14.01,2013-06-16 16:07:00,
2013-06-16 12:11:00,80.7,66.5,29.88,SSW,199,0.0,4.0,62,0.00,,---,0.00,VWS V14.01,2013-06-16 16:11:00,
2013-06-16 12:12:00,80.5,65.8,29.88,SSW,213,1.0,1.0,61,0.00,,---,0.00,VWS V14.01,2013-06-16 16:12:00,
2013-06-16 12:16:00,80.5,65.8,29.88,SSW,194,7.0,13.0,61,0.00,,---,0.00,VWS V14.01,2013-06-16 16:16:00,
2013-06-16 12:17:00,80.5,65.8,29.88,SSW,196,5.0,6.0,61,0.00,,---,0.00,VWS V14.01,2013-06-16 16:17:00,
2013-06-16 12:22:00,80.1,65.0,29.88,West,263,6.0,14.0,60,0.00,,---,0.00,VWS V14.01,2013-06-16 16:22:00,
2013-06-16 12:27:00,79.4,64.3,29.88,WNW,300,10.0,16.0,60,0.00,,---,0.00,VWS V14.01,2013-06-16 16:27:00,
2013-06-16 12:32:00,79.0,64.9,29.88,North,5,1.0,11.0,62,0.00,,---,0.00,VWS V14.01,2013-06-16 16:32:00,
2013-06-16 12:37:00,78.8,66.1,29.87,SW,226,7.0,11.0,65,0.00,,---,0.00,VWS V14.01,2013-06-16 16:37:00,
2013-06-16 12:42:00,78.8,64.7,29.87,WSW,244,3.0,4.0,62,0.00,,---,0.00,VWS V14.01,2013-06-16 16:42:00,
2013-06-16 12:47:00,78.8,64.7,29.87,WSW,250,2.0,6.0,62,0.00,,---,0.00,VWS V14.01,2013-06-16 16:47:00,
2013-06-16 12:48:00,78.8,64.7,29.87,WSW,250,1.0,4.0,62,0.00,,---,0.00,VWS V14.01,2013-06-16 16:48:00,
2013-06-16 12:52:00,78.6,64.5,29.87,South,183,3.0,3.0,62,0.00,,---,0.00,VWS V14.01,2013-06-16 16:52:00,
2013-06-16 12:53:00,78.6,64.5,29.87,WSW,237,4.0,6.0,62,0.00,,---,0.00,VWS V14.01,2013-06-16 16:53:00,
2013-06-16 12:57:00,78.5,64.4,29.87,SW,215,7.0,7.0,62,0.00,,---,0.00,VWS V14.01,2013-06-16 16:57:00,
2013-06-16 12:58:00,78.5,64.4,29.87,SW,218,8.0,14.0,62,0.00,,---,0.00,VWS V14.01,2013-06-16 16:58:00,
2013-06-16 13:02:00,78.5,64.9,29.87,SSW,210,4.0,5.0,63,0.00,,---,0.00,VWS V14.01,2013-06-16 17:02:00,
2013-06-16 13:03:00,78.5,65.3,29.87,SSW,198,3.0,7.0,64,0.00,,---,0.00,VWS V14.01,2013-06-16 17:03:00,
2013-06-16 13:07:00,78.5,64.9,29.87,SW,233,3.0,4.0,63,0.00,,---,0.00,VWS V14.01,2013-06-16 17:07:00,
2013-06-16 13:08:00,78.5,65.3,29.87,WSW,240,2.0,7.0,64,0.00,,---,0.00,VWS V14.01,2013-06-16 17:08:00,
2013-06-16 13:12:00,78.3,64.7,29.87,SSW,203,0.0,5.0,63,0.00,,---,0.00,VWS V14.01,2013-06-16 17:12:00,
2013-06-16 13:13:00,78.3,65.1,29.87,SSW,202,3.0,5.0,64,0.00,,---,0.00,VWS V14.01,2013-06-16 17:13:00,
2013-06-16 13:17:00,78.3,65.6,29.87,SSW,207,4.0,7.0,65,0.00,,---,0.00,VWS V14.01,2013-06-16 17:17:00,
2013-06-16 13:18:00,78.3,65.6,29.87,SW,223,12.0,12.0,65,0.00,,---,0.00,VWS V14.01,2013-06-16 17:18:00,
2013-06-16 13:22:00,78.3,65.6,29.87,SW,229,6.0,12.0,65,0.00,,---,0.00,VWS V14.01,2013-06-16 17:22:00,
2013-06-16 13:23:00,78.3,64.7,29.87,SW,228,1.0,12.0,63,0.00,,---,0.00,VWS V14.01,2013-06-16 17:23:00,
2013-06-16 13:27:00,78.1,64.9,29.87,SW,228,8.0,9.0,64,0.00,,---,0.00,VWS V14.01,2013-06-16 17:27:00,
2013-06-16 13:28:00,78.1,64.9,29.87,SW,231,1.0,2.0,64,0.00,,---,0.00,VWS V14.01,2013-06-16 17:28:00,
2013-06-16 13:32:00,78.1,64.9,29.87,SW,225,0.0,2.0,64,0.00,,---,0.00,VWS V14.01,2013-06-16 17:32:00,
2013-06-16 13:33:00,78.1,64.9,29.87,SSW,213,7.0,7.0,64,0.00,,---,0.00,VWS V14.01,2013-06-16 17:33:00,
2013-06-16 13:37:00,78.1,65.4,29.87,SW,215,4.0,4.0,65,0.00,,---,0.00,VWS V14.01,2013-06-16 17:37:00,
2013-06-16 13:38:00,78.1,65.4,29.87,West,269,3.0,6.0,65,0.00,,---,0.00,VWS V14.01,2013-06-16 17:38:00,
2013-06-16 13:42:00,77.9,64.8,29.87,WSW,240,1.0,10.0,64,0.00,,---,0.00,VWS V14.01,2013-06-16 17:42:00,
2013-06-16 13:43:00,77.9,64.8,29.87,SW,221,6.0,10.0,64,0.00,,---,0.00,VWS V14.01,2013-06-16 17:43:00,
2013-06-16 13:47:00,77.7,64.6,29.87,SSW,209,4.0,6.0,64,0.00,,---,0.00,VWS V14.01,2013-06-16 17:47:00,
2013-06-16 13:48:00,77.7,64.6,29.87,SSW,207,6.0,9.0,64,0.00,,---,0.00,VWS V14.01,2013-06-16 17:48:00,
2013-06-16 13:52:00,77.6,64.5,29.87,SSW,213,6.0,6.0,64,0.00,,---,0.00,VWS V14.01,2013-06-16 17:52:00,
2013-06-16 13:53:00,77.6,64.5,29.87,SW,220,3.0,6.0,64,0.00,,---,0.00,VWS V14.01,2013-06-16 17:53:00,
2013-06-16 13:54:00,77.6,64.5,29.87,SSW,207,7.0,7.0,64,0.00,,---,0.00,VWS V14.01,2013-06-16 17:54:00,
2013-06-16 13:57:00,77.4,63.8,29.87,SSE,157,4.0,5.0,63,0.00,,---,0.00,VWS V14.01,2013-06-16 17:57:00,
2013-06-16 13:58:00,77.4,63.8,29.87,South,175,6.0,6.0,63,0.00,,---,0.00,VWS V14.01,2013-06-16 17:58:00,
2013-06-16 13:59:00,77.4,63.8,29.87,SSW,208,9.0,13.0,63,0.00,,---,0.00,VWS V14.01,2013-06-16 17:59:00,
2013-06-16 14:02:00,77.2,64.5,29.87,WNW,284,8.0,9.0,65,0.00,,---,0.00,VWS V14.01,2013-06-16 18:02:00,
2013-06-16 14:03:00,77.2,64.1,29.87,WSW,248,4.0,9.0,64,0.00,,---,0.00,VWS V14.01,2013-06-16 18:03:00,
2013-06-16 14:04:00,77.2,64.1,29.87,SW,219,6.0,6.0,64,0.00,,---,0.00,VWS V14.01,2013-06-16 18:04:00,
2013-06-16 14:07:00,77.0,64.8,29.87,SSW,206,0.0,6.0,66,0.00,,---,0.00,VWS V14.01,2013-06-16 18:07:00,
2013-06-16 14:08:00,77.0,64.8,29.87,SSW,206,1.0,1.0,66,0.00,,---,0.00,VWS V14.01,2013-06-16 18:08:00,
2013-06-16 14:09:00,77.0,64.8,29.87,SSW,213,6.0,9.0,66,0.00,,---,0.00,VWS V14.01,2013-06-16 18:09:00,
2013-06-16 14:13:00,76.8,64.2,29.87,SSW,203,10.0,10.0,65,0.00,,---,0.00,VWS V14.01,2013-06-16 18:13:00,
2013-06-16 14:14:00,76.7,64.5,29.87,SW,215,1.0,1.0,66,0.00,,---,0.00,VWS V14.01,2013-06-16 18:14:00,
2013-06-16 14:18:00,76.7,64.9,29.87,SSW,205,4.0,4.0,67,0.00,,---,0.00,VWS V14.01,2013-06-16 18:18:00,
2013-06-16 14:19:00,76.7,64.9,29.87,SW,217,1.0,5.0,67,0.00,,---,0.00,VWS V14.01,2013-06-16 18:19:00,
2013-06-16 14:23:00,76.5,65.2,29.87,SSW,207,4.0,7.0,68,0.00,,---,0.00,VWS V14.01,2013-06-16 18:23:00,
2013-06-16 14:24:00,76.5,64.7,29.87,WSW,247,0.0,6.0,67,0.00,,---,0.00,VWS V14.01,2013-06-16 18:24:00,
2013-06-16 14:28:00,76.5,65.6,29.87,SW,215,7.0,7.0,69,0.00,,---,0.00,VWS V14.01,2013-06-16 18:28:00,
2013-06-16 14:29:00,76.5,65.6,29.87,SW,232,4.0,9.0,69,0.00,,---,0.00,VWS V14.01,2013-06-16 18:29:00,
2013-06-16 14:33:00,76.3,65.4,29.87,SSW,207,0.0,2.0,69,0.00,,---,0.00,VWS V14.01,2013-06-16 18:33:00,
2013-06-16 14:34:00,76.3,65.4,29.87,SSW,208,4.0,5.0,69,0.00,,---,0.00,VWS V14.01,2013-06-16 18:34:00,
2013-06-16 14:38:00,76.3,65.4,29.87,SW,223,3.0,3.0,69,0.00,,---,0.00,VWS V14.01,2013-06-16 18:38:00,
2013-06-16 14:39:00,76.3,65.8,29.87,SW,227,4.0,5.0,70,0.00,,---,0.00,VWS V14.01,2013-06-16 18:39:00,
2013-06-16 14:43:00,76.3,65.4,29.87,SSW,201,0.0,0.0,69,0.00,,---,0.00,VWS V14.01,2013-06-16 18:43:00,
2013-06-16 14:44:00,76.3,65.4,29.87,SW,234,0.0,6.0,69,0.00,,---,0.00,VWS V14.01,2013-06-16 18:44:00,
2013-06-16 14:48:00,76.3,65.4,29.87,SSW,198,5.0,6.0,69,0.00,,---,0.00,VWS V14.01,2013-06-16 18:48:00,
2013-06-16 14:49:00,76.3,65.4,29.87,WNW,296,8.0,10.0,69,0.00,,---,0.00,VWS V14.01,2013-06-16 18:49:00,
2013-06-16 14:50:00,76.3,65.0,29.87,WSW,240,10.0,13.0,68,0.00,,---,0.00,VWS V14.01,2013-06-16 18:50:00,
2013-06-16 14:53:00,76.3,65.4,29.87,SSW,197,7.0,13.0,69,0.00,,---,0.00,VWS V14.01,2013-06-16 18:53:00,
2013-06-16 14:54:00,76.3,65.4,29.87,SW,215,6.0,13.0,69,0.00,,---,0.00,VWS V14.01,2013-06-16 18:54:00,
2013-06-16 14:55:00,76.3,65.0,29.87,SW,215,3.0,5.0,68,0.00,,---,0.00,VWS V14.01,2013-06-16 18:55:00,
2013-06-16 14:58:00,76.3,65.0,29.87,SW,217,10.0,10.0,68,0.00,,---,0.00,VWS V14.01,2013-06-16 18:58:00,
2013-06-16 14:59:00,76.3,65.0,29.87,SW,220,10.0,10.0,68,0.00,,---,0.00,VWS V14.01,2013-06-16 18:59:00,
2013-06-16 15:00:00,76.3,65.0,29.87,SSW,212,7.0,10.0,68,0.00,,---,0.00,VWS V14.01,2013-06-16 19:00:00,
2013-06-16 15:03:00,76.3,65.0,29.85,SSW,207,0.0,3.0,68,0.00,,---,0.00,VWS V14.01,2013-06-16 19:03:00,
2013-06-16 15:04:00,76.3,65.0,29.85,SSW,207,0.0,3.0,68,0.00,,---,0.00,VWS V14.01,2013-06-16 19:04:00,
2013-06-16 15:05:00,76.3,64.6,29.85,SSW,203,4.0,4.0,67,0.00,,---,0.00,VWS V14.01,2013-06-16 19:05:00,
2013-06-16 15:08:00,76.3,65.0,29.85,SSW,205,6.0,6.0,68,0.00,,---,0.00,VWS V14.01,2013-06-16 19:08:00,
2013-06-16 15:09:00,76.3,65.4,29.85,SSW,205,6.0,6.0,69,0.00,,---,0.00,VWS V14.01,2013-06-16 19:09:00,
2013-06-16 15:10:00,76.3,65.4,29.85,SSW,206,4.0,7.0,69,0.00,,---,0.00,VWS V14.01,2013-06-16 19:10:00,
2013-06-16 15:13:00,76.3,65.4,29.85,South,178,4.0,7.0,69,0.00,,---,0.00,VWS V14.01,2013-06-16 19:13:00,
2013-06-16 15:14:00,76.3,65.0,29.85,SSW,210,0.0,0.0,68,0.00,,---,0.00,VWS V14.01,2013-06-16 19:14:00,
2013-06-16 15:15:00,76.3,65.0,29.85,South,175,4.0,7.0,68,0.00,,---,0.00,VWS V14.01,2013-06-16 19:15:00,
2013-06-16 15:18:00,76.5,65.6,29.85,South,182,1.0,3.0,69,0.00,,---,0.00,VWS V14.01,2013-06-16 19:18:00,
2013-06-16 15:19:00,76.5,65.6,29.85,South,182,0.0,0.0,69,0.00,,---,0.00,VWS V14.01,2013-06-16 19:19:00,
2013-06-16 15:20:00,76.5,65.6,29.85,South,182,0.0,1.0,69,0.00,,---,0.00,VWS V14.01,2013-06-16 19:20:00,
2013-06-16 15:23:00,76.5,65.2,29.85,South,186,5.0,5.0,68,0.00,,---,0.00,VWS V14.01,2013-06-16 19:23:00,
2013-06-16 15:24:00,76.5,65.6,29.85,SSW,201,4.0,4.0,69,0.00,,---,0.00,VWS V14.01,2013-06-16 19:24:00,
2013-06-16 15:25:00,76.7,65.8,29.85,SSW,198,5.0,8.0,69,0.00,,---,0.00,VWS V14.01,2013-06-16 19:25:00,
2013-06-16 15:28:00,76.7,65.3,29.85,SSW,194,5.0,9.0,68,0.00,,---,0.00,VWS V14.01,2013-06-16 19:28:00,
2013-06-16 15:29:00,76.7,65.3,29.85,SSW,212,7.0,7.0,68,0.00,,---,0.00,VWS V14.01,2013-06-16 19:29:00,
2013-06-16 15:30:00,76.7,65.3,29.85,SSW,211,6.0,10.0,68,0.00,,---,0.00,VWS V14.01,2013-06-16 19:30:00,
2013-06-16 15:33:00,76.7,65.3,29.85,SSW,205,1.0,6.0,68,0.00,,---,0.00,VWS V14.01,2013-06-16 19:33:00,
2013-06-16 15:34:00,76.7,65.3,29.85,SSW,205,0.0,0.0,68,0.00,,---,0.00,VWS V14.01,2013-06-16 19:34:00,
2013-06-16 15:35:00,76.8,65.9,29.85,SSW,205,2.0,2.0,69,0.00,,---,0.00,VWS V14.01,2013-06-16 19:35:00,
2013-06-16 15:38:00,76.8,65.4,29.85,SSW,212,5.0,9.0,68,0.00,,---,0.00,VWS V14.01,2013-06-16 19:38:00,
2013-06-16 15:39:00,76.8,65.4,29.85,SSW,213,5.0,6.0,68,0.00,,---,0.00,VWS V14.01,2013-06-16 19:39:00,
2013-06-16 15:40:00,76.8,65.4,29.85,SW,215,3.0,6.0,68,0.00,,---,0.00,VWS V14.01,2013-06-16 19:40:00,
2013-06-16 15:44:00,76.8,65.4,29.85,SSW,208,1.0,2.0,68,0.00,,---,0.00,VWS V14.01,2013-06-16 19:44:00,
2013-06-16 15:45:00,77.0,66.1,29.85,SSW,208,0.0,5.0,69,0.00,,---,0.00,VWS V14.01,2013-06-16 19:45:00,
2013-06-16 15:48:00,77.2,66.2,29.85,SSW,210,0.0,5.0,69,0.00,,---,0.00,VWS V14.01,2013-06-16 19:48:00,
2013-06-16 15:49:00,77.2,66.2,29.85,SSW,210,0.0,0.0,69,0.00,,---,0.00,VWS V14.01,2013-06-16 19:49:00,
2013-06-16 15:50:00,77.2,66.2,29.85,SSW,192,4.0,7.0,69,0.00,,---,0.00,VWS V14.01,2013-06-16 19:50:00,
2013-06-16 15:54:00,77.6,66.2,29.85,SW,217,0.0,3.0,68,0.00,,---,0.00,VWS V14.01,2013-06-16 19:54:00,
2013-06-16 15:55:00,77.6,66.6,29.85,SSW,208,0.0,0.0,69,0.00,,---,0.00,VWS V14.01,2013-06-16 19:55:00,
2013-06-16 15:59:00,77.7,66.7,29.85,SSW,194,5.0,6.0,69,0.00,,---,0.00,VWS V14.01,2013-06-16 19:59:00,
2013-06-16 16:00:00,77.9,66.9,29.85,SSW,206,0.0,6.0,69,0.00,,---,0.00,VWS V14.01,2013-06-16 20:00:00,
2013-06-16 16:04:00,78.1,67.1,29.85,SSW,206,0.0,1.0,69,0.00,,---,0.00,VWS V14.01,2013-06-16 20:04:00,
2013-06-16 16:05:00,78.1,67.1,29.85,SW,223,0.0,5.0,69,0.00,,---,0.00,VWS V14.01,2013-06-16 20:05:00,
2013-06-16 16:09:00,78.1,67.1,29.85,SSW,212,2.0,7.0,69,0.00,,---,0.00,VWS V14.01,2013-06-16 20:09:00,
2013-06-16 16:10:00,77.9,66.5,29.85,SSW,212,0.0,2.0,68,0.00,,---,0.00,VWS V14.01,2013-06-16 20:10:00,
2013-06-16 16:14:00,77.7,65.9,29.85,SW,221,0.0,0.0,67,0.00,,---,0.00,VWS V14.01,2013-06-16 20:14:00,
2013-06-16 16:15:00,77.7,65.9,29.85,SW,217,1.0,6.0,67,0.00,,---,0.00,VWS V14.01,2013-06-16 20:15:00,
2013-06-16 16:19:00,77.6,66.6,29.85,SW,218,0.0,2.0,69,0.00,,---,0.00,VWS V14.01,2013-06-16 20:19:00,
2013-06-16 16:20:00,77.6,66.6,29.85,SW,218,3.0,3.0,69,0.00,,---,0.00,VWS V14.01,2013-06-16 20:20:00,
2013-06-16 16:24:00,77.4,66.4,29.85,SW,221,2.0,4.0,69,0.00,,---,0.00,VWS V14.01,2013-06-16 20:24:00,
2013-06-16 16:25:00,77.4,66.4,29.85,SW,221,0.0,0.0,69,0.00,,---,0.00,VWS V14.01,2013-06-16 20:25:00,
2013-06-16 16:29:00,77.4,66.4,29.85,SSW,211,2.0,2.0,69,0.00,,---,0.00,VWS V14.01,2013-06-16 20:29:00,
2013-06-16 16:30:00,77.4,66.4,29.85,SSW,211,0.0,5.0,69,0.00,,---,0.00,VWS V14.01,2013-06-16 20:30:00,
2013-06-16 16:34:00,77.6,67.5,29.85,SW,230,0.0,7.0,71,0.00,,---,0.00,VWS V14.01,2013-06-16 20:34:00,
2013-06-16 16:35:00,77.6,67.1,29.85,SW,230,1.0,1.0,70,0.00,,---,0.00,VWS V14.01,2013-06-16 20:35:00,
2013-06-16 16:39:00,77.6,66.6,29.85,SW,228,0.0,4.0,69,0.00,,---,0.00,VWS V14.01,2013-06-16 20:39:00,
2013-06-16 16:40:00,77.7,66.3,29.85,SW,228,0.0,0.0,68,0.00,,---,0.00,VWS V14.01,2013-06-16 20:40:00,
2013-06-16 16:44:00,77.9,66.9,29.85,SW,220,0.0,3.0,69,0.00,,---,0.00,VWS V14.01,2013-06-16 20:44:00,
2013-06-16 16:45:00,77.9,67.3,29.85,SW,217,7.0,7.0,70,0.00,,---,0.00,VWS V14.01,2013-06-16 20:45:00,
2013-06-16 16:49:00,77.9,66.9,29.85,WNW,287,0.0,7.0,69,0.00,,---,0.00,VWS V14.01,2013-06-16 20:49:00,
2013-06-16 16:50:00,77.9,66.9,29.85,West,267,3.0,4.0,69,0.00,,---,0.00,VWS V14.01,2013-06-16 20:50:00,
2013-06-16 16:51:00,78.1,67.1,29.85,West,267,0.0,4.0,69,0.00,,---,0.00,VWS V14.01,2013-06-16 20:51:00,
2013-06-16 16:54:00,78.1,67.5,29.85,West,265,1.0,1.0,70,0.00,,---,0.00,VWS V14.01,2013-06-16 20:54:00,
2013-06-16 16:55:00,78.3,68.1,29.85,SSW,204,5.0,8.0,71,0.00,,---,0.00,VWS V14.01,2013-06-16 20:55:00,
2013-06-16 16:56:00,78.3,67.3,29.85,SSW,207,1.0,8.0,69,0.00,,---,0.00,VWS V14.01,2013-06-16 20:56:00,
2013-06-16 16:59:00,78.3,67.3,29.85,SW,232,5.0,9.0,69,0.00,,---,0.00,VWS V14.01,2013-06-16 20:59:00,
2013-06-16 17:00:00,78.3,66.9,29.85,SW,220,6.0,11.0,68,0.00,,---,0.00,VWS V14.01,2013-06-16 21:00:00,
2013-06-16 17:01:00,78.3,66.0,29.85,SW,221,0.0,11.0,66,0.00,,---,0.00,VWS V14.01,2013-06-16 21:01:00,
2013-06-16 17:04:00,78.3,65.1,29.85,SW,229,6.0,13.0,64,0.00,,---,0.00,VWS V14.01,2013-06-16 21:04:00,
2013-06-16 17:05:00,78.3,65.1,29.85,WSW,245,2.0,5.0,64,0.00,,---,0.00,VWS V14.01,2013-06-16 21:05:00,
2013-06-16 17:06:00,78.5,65.8,29.85,WSW,246,0.0,10.0,65,0.00,,---,0.00,VWS V14.01,2013-06-16 21:06:00,
2013-06-16 17:09:00,78.5,65.3,29.85,WSW,242,1.0,4.0,64,0.00,,---,0.00,VWS V14.01,2013-06-16 21:09:00,
2013-06-16 17:10:00,78.5,65.8,29.85,SSW,205,6.0,11.0,65,0.00,,---,0.00,VWS V14.01,2013-06-16 21:10:00,
2013-06-16 17:11:00,78.5,65.3,29.85,SSW,210,1.0,11.0,64,0.00,,---,0.00,VWS V14.01,2013-06-16 21:11:00,
2013-06-16 17:14:00,78.5,64.9,29.85,West,263,13.0,13.0,63,0.00,,---,0.00,VWS V14.01,2013-06-16 21:14:00,
2013-06-16 17:15:00,78.5,64.4,29.85,SSW,213,1.0,11.0,62,0.00,,---,0.00,VWS V14.01,2013-06-16 21:15:00,
2013-06-16 17:16:00,78.5,64.4,29.85,SW,223,1.0,11.0,62,0.00,,---,0.00,VWS V14.01,2013-06-16 21:16:00,
2013-06-16 17:19:00,78.5,64.4,29.86,West,271,6.0,11.0,62,0.00,,---,0.00,VWS V14.01,2013-06-16 21:19:00,
2013-06-16 17:20:00,78.5,64.4,29.86,WNW,286,5.0,6.0,62,0.00,,---,0.00,VWS V14.01,2013-06-16 21:20:00,
2013-06-16 17:21:00,78.5,64.4,29.86,WNW,283,0.0,0.0,62,0.00,,---,0.00,VWS V14.01,2013-06-16 21:21:00,
2013-06-16 17:24:00,78.5,64.9,29.86,West,272,0.0,4.0,63,0.00,,---,0.00,VWS V14.01,2013-06-16 21:24:00,
2013-06-16 17:25:00,78.5,64.9,29.86,West,272,0.0,1.0,63,0.00,,---,0.00,VWS V14.01,2013-06-16 21:25:00,
2013-06-16 17:26:00,78.5,64.9,29.86,SSE,158,4.0,4.0,63,0.00,,---,0.00,VWS V14.01,2013-06-16 21:26:00,
2013-06-16 17:29:00,78.3,64.7,29.86,NNW,329,0.0,1.0,63,0.00,,---,0.00,VWS V14.01,2013-06-16 21:29:00,
2013-06-16 17:30:00,78.3,64.7,29.86,NNW,328,0.0,3.0,63,0.00,,---,0.00,VWS V14.01,2013-06-16 21:30:00,
2013-06-16 17:31:00,78.3,64.7,29.86,NNW,328,0.0,3.0,63,0.00,,---,0.00,VWS V14.01,2013-06-16 21:31:00,
2013-06-16 17:34:00,78.3,65.1,29.86,WNW,294,4.0,7.0,64,0.00,,---,0.00,VWS V14.01,2013-06-16 21:34:00,
2013-06-16 17:35:00,78.3,64.2,29.86,WSW,248,5.0,7.0,62,0.00,,---,0.00,VWS V14.01,2013-06-16 21:35:00,
2013-06-16 17:36:00,78.3,64.2,29.86,WSW,247,4.0,7.0,62,0.00,,---,0.00,VWS V14.01,2013-06-16 21:36:00,
2013-06-16 17:39:00,78.1,64.0,29.86,WSW,240,3.0,5.0,62,0.00,,---,0.00,VWS V14.01,2013-06-16 21:39:00,
2013-06-16 17:40:00,78.1,64.0,29.86,West,267,3.0,6.0,62,0.00,,---,0.00,VWS V14.01,2013-06-16 21:40:00,
2013-06-16 17:41:00,78.1,64.0,29.86,West,267,3.0,6.0,62,0.00,,---,0.00,VWS V14.01,2013-06-16 21:41:00,
2013-06-16 17:45:00,78.1,63.1,29.86,SW,224,1.0,10.0,60,0.00,,---,0.00,VWS V14.01,2013-06-16 21:45:00,
2013-06-16 17:46:00,78.1,64.0,29.86,SW,224,0.0,4.0,62,0.00,,---,0.00,VWS V14.01,2013-06-16 21:46:00,
2013-06-16 17:50:00,77.9,63.4,29.87,SSW,199,4.0,11.0,61,0.00,,---,0.00,VWS V14.01,2013-06-16 21:50:00,
2013-06-16 17:51:00,77.9,62.9,29.87,WSW,240,5.0,5.0,60,0.00,,---,0.00,VWS V14.01,2013-06-16 21:51:00,
2013-06-16 17:55:00,77.9,63.8,29.87,WSW,244,6.0,11.0,62,0.00,,---,0.00,VWS V14.01,2013-06-16 21:55:00,
2013-06-16 17:56:00,77.9,63.8,29.87,SW,217,3.0,10.0,62,0.00,,---,0.00,VWS V14.01,2013-06-16 21:56:00,
2013-06-16 18:00:00,77.7,63.2,29.87,WSW,238,4.0,11.0,61,0.00,,---,0.00,VWS V14.01,2013-06-16 22:00:00,
2013-06-16 18:01:00,77.7,62.7,29.87,WNW,283,2.0,9.0,60,0.00,,---,0.00,VWS V14.01,2013-06-16 22:01:00,
2013-06-16 18:05:00,77.6,62.6,29.86,West,277,4.0,9.0,60,0.00,,---,0.00,VWS V14.01,2013-06-16 22:05:00,
2013-06-16 18:06:00,77.6,62.6,29.86,WSW,251,1.0,1.0,60,0.00,,---,0.00,VWS V14.01,2013-06-16 22:06:00,
2013-06-16 18:10:00,77.6,62.6,29.86,SW,234,1.0,1.0,60,0.00,,---,0.00,VWS V14.01,2013-06-16 22:10:00,
2013-06-16 18:11:00,77.4,62.4,29.86,WSW,243,5.0,12.0,60,0.00,,---,0.00,VWS V14.01,2013-06-16 22:11:00,
2013-06-16 18:12:00,77.4,62.4,29.86,SSE,167,4.0,12.0,60,0.00,,---,0.00,VWS V14.01,2013-06-16 22:12:00,
2013-06-16 18:15:00,77.2,62.2,29.86,West,268,4.0,12.0,60,0.00,,---,0.00,VWS V14.01,2013-06-16 22:15:00,
2013-06-16 18:16:00,77.2,62.2,29.86,SW,232,0.0,3.0,60,0.00,,---,0.00,VWS V14.01,2013-06-16 22:16:00,
2013-06-16 18:17:00,77.2,61.8,29.86,NW,305,5.0,9.0,59,0.00,,---,0.00,VWS V14.01,2013-06-16 22:17:00,
2013-06-16 18:20:00,77.2,61.3,29.86,WSW,243,3.0,3.0,58,0.00,,---,0.00,VWS V14.01,2013-06-16 22:20:00,
2013-06-16 18:21:00,77.2,61.3,29.86,West,261,0.0,6.0,58,0.00,,---,0.00,VWS V14.01,2013-06-16 22:21:00,
2013-06-16 18:22:00,77.2,61.8,29.86,South,171,0.0,6.0,59,0.00,,---,0.00,VWS V14.01,2013-06-16 22:22:00,
2013-06-16 18:25:00,77.2,61.8,29.86,SW,218,3.0,3.0,59,0.00,,---,0.00,VWS V14.01,2013-06-16 22:25:00,
2013-06-16 18:26:00,77.2,62.2,29.86,SW,218,0.0,4.0,60,0.00,,---,0.00,VWS V14.01,2013-06-16 22:26:00,
2013-06-16 18:27:00,77.2,62.2,29.86,WSW,252,6.0,8.0,60,0.00,,---,0.00,VWS V14.01,2013-06-16 22:27:00,
2013-06-16 18:30:00,77.2,62.2,29.86,WSW,258,2.0,4.0,60,0.00,,---,0.00,VWS V14.01,2013-06-16 22:30:00,
2013-06-16 18:31:00,77.2,62.2,29.86,WSW,258,0.0,0.0,60,0.00,,---,0.00,VWS V14.01,2013-06-16 22:31:00,
2013-06-16 18:32:00,77.2,62.2,29.86,WSW,258,0.0,0.0,60,0.00,,---,0.00,VWS V14.01,2013-06-16 22:32:00,
2013-06-16 18:35:00,77.2,62.7,29.86,WNW,302,1.0,2.0,61,0.00,,---,0.00,VWS V14.01,2013-06-16 22:35:00,
2013-06-16 18:36:00,77.2,62.7,29.86,WNW,297,1.0,10.0,61,0.00,,---,0.00,VWS V14.01,2013-06-16 22:36:00,
2013-06-16 18:37:00,77.2,62.7,29.86,WNW,297,1.0,10.0,61,0.00,,---,0.00,VWS V14.01,2013-06-16 22:37:00,
2013-06-16 18:40:00,77.2,62.7,29.86,WNW,290,6.0,10.0,61,0.00,,---,0.00,VWS V14.01,2013-06-16 22:40:00,
2013-06-16 18:42:00,77.0,62.1,29.86,WNW,291,0.0,3.0,60,0.00,,---,0.00,VWS V14.01,2013-06-16 22:42:00,
2013-06-16 18:45:00,77.0,62.1,29.86,South,188,3.0,4.0,60,0.00,,---,0.00,VWS V14.01,2013-06-16 22:45:00,
2013-06-16 18:47:00,77.0,61.1,29.86,West,273,4.0,11.0,58,0.00,,---,0.00,VWS V14.01,2013-06-16 22:47:00,
2013-06-16 18:50:00,76.8,61.9,29.87,SW,229,4.0,5.0,60,0.00,,---,0.00,VWS V14.01,2013-06-16 22:50:00,
2013-06-16 18:52:00,76.8,62.3,29.87,SW,236,6.0,6.0,61,0.00,,---,0.00,VWS V14.01,2013-06-16 22:52:00,
2013-06-16 18:55:00,76.7,61.8,29.87,SW,230,0.0,1.0,60,0.00,,---,0.00,VWS V14.01,2013-06-16 22:55:00,
2013-06-16 18:57:00,76.7,62.2,29.87,WSW,252,5.0,5.0,61,0.00,,---,0.00,VWS V14.01,2013-06-16 22:57:00,
2013-06-16 19:00:00,76.7,61.8,29.87,West,269,0.0,4.0,60,0.00,,---,0.00,VWS V14.01,2013-06-16 23:00:00,
2013-06-16 19:02:00,76.5,62.5,29.87,West,269,0.0,3.0,62,0.00,,---,0.00,VWS V14.01,2013-06-16 23:02:00,
2013-06-16 19:05:00,76.5,62.1,29.86,WSW,237,1.0,5.0,61,0.00,,---,0.00,VWS V14.01,2013-06-16 23:05:00,
2013-06-16 19:07:00,76.5,62.1,29.86,SSW,209,1.0,4.0,61,0.00,,---,0.00,VWS V14.01,2013-06-16 23:07:00,
2013-06-16 19:10:00,76.3,62.3,29.86,SW,217,0.0,3.0,62,0.00,,---,0.00,VWS V14.01,2013-06-16 23:10:00,
2013-06-16 19:12:00,76.3,61.9,29.86,SSW,213,0.0,6.0,61,0.00,,---,0.00,VWS V14.01,2013-06-16 23:12:00,
2013-06-16 19:15:00,76.1,62.2,29.86,SSW,213,0.0,2.0,62,0.00,,---,0.00,VWS V14.01,2013-06-16 23:15:00,
2013-06-16 19:17:00,76.1,62.2,29.86,SSW,213,0.0,1.0,62,0.00,,---,0.00,VWS V14.01,2013-06-16 23:17:00,
2013-06-16 19:20:00,76.1,62.2,29.86,SW,229,0.0,4.0,62,0.00,,---,0.00,VWS V14.01,2013-06-16 23:20:00,
2013-06-16 19:22:00,76.1,62.2,29.86,SW,217,0.0,3.0,62,0.00,,---,0.00,VWS V14.01,2013-06-16 23:22:00,
2013-06-16 19:23:00,76.1,62.2,29.86,SW,217,0.0,3.0,62,0.00,,---,0.00,VWS V14.01,2013-06-16 23:23:00,
2013-06-16 19:26:00,76.1,62.2,29.86,SW,217,0.0,1.0,62,0.00,,---,0.00,VWS V14.01,2013-06-16 23:26:00,
2013-06-16 19:27:00,76.0,62.0,29.86,SW,217,0.0,0.0,62,0.00,,---,0.00,VWS V14.01,2013-06-16 23:27:00,
2013-06-16 19:28:00,76.0,62.0,29.86,SW,217,0.0,0.0,62,0.00,,---,0.00,VWS V14.01,2013-06-16 23:28:00,
2013-06-16 19:31:00,76.0,62.5,29.86,SW,217,0.0,0.0,63,0.00,,---,0.00,VWS V14.01,2013-06-16 23:31:00,
2013-06-16 19:32:00,76.0,62.0,29.86,SW,217,0.0,0.0,62,0.00,,---,0.00,VWS V14.01,2013-06-16 23:32:00,
2013-06-16 19:33:00,76.0,62.0,29.86,SSW,213,2.0,6.0,62,0.00,,---,0.00,VWS V14.01,2013-06-16 23:33:00,
2013-06-16 19:36:00,75.8,61.9,29.86,SW,234,0.0,1.0,62,0.00,,---,0.00,VWS V14.01,2013-06-16 23:36:00,
2013-06-16 19:37:00,75.8,61.9,29.86,SW,234,0.0,4.0,62,0.00,,---,0.00,VWS V14.01,2013-06-16 23:37:00,
2013-06-16 19:38:00,75.8,62.3,29.86,SW,234,1.0,4.0,63,0.00,,---,0.00,VWS V14.01,2013-06-16 23:38:00,
2013-06-16 19:41:00,75.8,61.9,29.86,SSW,211,6.0,6.0,62,0.00,,---,0.00,VWS V14.01,2013-06-16 23:41:00,
2013-06-16 19:42:00,75.8,61.9,29.86,SSW,211,0.0,0.0,62,0.00,,---,0.00,VWS V14.01,2013-06-16 23:42:00,
2013-06-16 19:43:00,75.6,61.7,29.86,SSW,211,0.0,0.0,62,0.00,,---,0.00,VWS V14.01,2013-06-16 23:43:00,
2013-06-16 19:46:00,75.6,61.7,29.86,SSW,211,0.0,0.0,62,0.00,,---,0.00,VWS V14.01,2013-06-16 23:46:00,
2013-06-16 19:47:00,75.6,61.7,29.86,SSW,211,0.0,0.0,62,0.00,,---,0.00,VWS V14.01,2013-06-16 23:47:00,
2013-06-16 19:48:00,75.6,61.7,29.86,SSW,211,0.0,1.0,62,0.00,,---,0.00,VWS V14.01,2013-06-16 23:48:00,
2013-06-16 19:51:00,75.4,61.5,29.86,WSW,242,3.0,6.0,62,0.00,,---,0.00,VWS V14.01,2013-06-16 23:51:00,
2013-06-16 19:52:00,75.4,61.5,29.86,WSW,242,5.0,5.0,62,0.00,,---,0.00,VWS V14.01,2013-06-16 23:52:00,
2013-06-16 19:53:00,75.4,61.5,29.86,WSW,242,1.0,3.0,62,0.00,,---,0.00,VWS V14.01,2013-06-16 23:53:00,
2013-06-16 19:56:00,75.4,61.5,29.86,WSW,242,0.0,0.0,62,0.00,,---,0.00,VWS V14.01,2013-06-16 23:56:00,
2013-06-16 19:57:00,75.3,61.4,29.86,WSW,242,1.0,2.0,62,0.00,,---,0.00,VWS V14.01,2013-06-16 23:57:00,
2013-06-16 19:58:00,75.3,61.4,29.86,WSW,242,0.0,2.0,62,0.00,,---,0.00,VWS V14.01,2013-06-16 23:58:00,
2013-06-16 20:01:00,75.3,61.4,29.86,WSW,242,5.0,5.0,62,0.00,,---,0.00,VWS V14.01,2013-06-17 00:01:00,
2013-06-16 20:02:00,75.3,61.4,29.87,WSW,242,2.0,2.0,62,0.00,,---,0.00,VWS V14.01,2013-06-17 00:02:00,
2013-06-16 20:03:00,75.3,61.4,29.87,WSW,242,0.0,2.0,62,0.00,,---,0.00,VWS V14.01,2013-06-17 00:03:00,
2013-06-16 20:06:00,75.3,61.8,29.87,SSW,198,2.0,5.0,63,0.00,,---,0.00,VWS V14.01,2013-06-17 00:06:00,
2013-06-16 20:07:00,75.1,61.7,29.87,SSW,200,1.0,6.0,63,0.00,,---,0.00,VWS V14.01,2013-06-17 00:07:00,
2013-06-16 20:08:00,75.1,61.7,29.87,SSW,200,2.0,2.0,63,0.00,,---,0.00,VWS V14.01,2013-06-17 00:08:00,
2013-06-16 20:11:00,75.1,61.2,29.87,SW,215,3.0,4.0,62,0.00,,---,0.00,VWS V14.01,2013-06-17 00:11:00,
2013-06-16 20:12:00,74.9,61.5,29.87,SW,215,0.0,4.0,63,0.00,,---,0.00,VWS V14.01,2013-06-17 00:12:00,
2013-06-16 20:13:00,74.9,61.0,29.87,SW,215,0.0,4.0,62,0.00,,---,0.00,VWS V14.01,2013-06-17 00:13:00,
2013-06-16 20:16:00,74.9,61.5,29.87,SW,217,1.0,4.0,63,0.00,,---,0.00,VWS V14.01,2013-06-17 00:16:00,
2013-06-16 20:17:00,74.9,61.5,29.87,SW,217,4.0,4.0,63,0.00,,---,0.00,VWS V14.01,2013-06-17 00:17:00,
2013-06-16 20:18:00,74.9,61.9,29.87,SW,217,4.0,5.0,64,0.00,,---,0.00,VWS V14.01,2013-06-17 00:18:00,
2013-06-16 20:21:00,74.7,61.7,29.87,SW,218,5.0,6.0,64,0.00,,---,0.00,VWS V14.01,2013-06-17 00:21:00,
2013-06-16 20:23:00,74.7,61.7,29.87,SW,218,1.0,3.0,64,0.00,,---,0.00,VWS V14.01,2013-06-17 00:23:00,
2013-06-16 20:24:00,74.6,61.6,29.87,SW,218,2.0,5.0,64,0.00,,---,0.00,VWS V14.01,2013-06-17 00:24:00,
2013-06-16 20:26:00,74.6,61.6,29.87,SW,218,0.0,0.0,64,0.00,,---,0.00,VWS V14.01,2013-06-17 00:26:00,
2013-06-16 20:28:00,74.6,61.6,29.87,SW,218,0.0,0.0,64,0.00,,---,0.00,VWS V14.01,2013-06-17 00:28:00,
2013-06-16 20:29:00,74.6,61.6,29.87,SW,221,1.0,5.0,64,0.00,,---,0.00,VWS V14.01,2013-06-17 00:29:00,
2013-06-16 20:31:00,74.4,61.9,29.87,SW,221,0.0,0.0,65,0.00,,---,0.00,VWS V14.01,2013-06-17 00:31:00,
2013-06-16 20:33:00,74.4,61.9,29.88,SW,221,2.0,3.0,65,0.00,,---,0.00,VWS V14.01,2013-06-17 00:33:00,
2013-06-16 20:34:00,74.2,61.7,29.88,SW,221,0.0,3.0,65,0.00,,---,0.00,VWS V14.01,2013-06-17 00:34:00,
2013-06-16 20:36:00,74.2,61.7,29.88,SW,221,0.0,0.0,65,0.00,,---,0.00,VWS V14.01,2013-06-17 00:36:00,
2013-06-16 20:38:00,74.0,61.5,29.88,SW,221,0.0,2.0,65,0.00,,---,0.00,VWS V14.01,2013-06-17 00:38:00,
2013-06-16 20:39:00,74.0,61.5,29.88,SW,221,4.0,5.0,65,0.00,,---,0.00,VWS V14.01,2013-06-17 00:39:00,
2013-06-16 20:41:00,74.0,61.5,29.88,SW,223,0.0,3.0,65,0.00,,---,0.00,VWS V14.01,2013-06-17 00:41:00,
2013-06-16 20:43:00,73.9,61.4,29.88,West,269,7.0,7.0,65,0.00,,---,0.00,VWS V14.01,2013-06-17 00:43:00,
2013-06-16 20:44:00,73.9,61.8,29.88,SW,236,4.0,7.0,66,0.00,,---,0.00,VWS V14.01,2013-06-17 00:44:00,
2013-06-16 20:47:00,73.7,61.7,29.88,SW,236,0.0,4.0,66,0.00,,---,0.00,VWS V14.01,2013-06-17 00:47:00,
2013-06-16 20:48:00,73.7,61.7,29.87,SW,236,1.0,3.0,66,0.00,,---,0.00,VWS V14.01,2013-06-17 00:48:00,
2013-06-16 20:49:00,73.5,61.5,29.87,SW,236,2.0,3.0,66,0.00,,---,0.00,VWS V14.01,2013-06-17 00:49:00,
2013-06-16 20:52:00,73.5,61.5,29.87,SW,232,2.0,7.0,66,0.00,,---,0.00,VWS V14.01,2013-06-17 00:52:00,
2013-06-16 20:53:00,73.3,60.8,29.87,SW,217,2.0,7.0,65,0.00,,---,0.00,VWS V14.01,2013-06-17 00:53:00,
2013-06-16 20:54:00,73.3,61.3,29.87,SW,217,0.0,7.0,66,0.00,,---,0.00,VWS V14.01,2013-06-17 00:54:00,
2013-06-16 20:57:00,73.2,61.2,29.87,SW,217,0.0,3.0,66,0.00,,---,0.00,VWS V14.01,2013-06-17 00:57:00,
2013-06-16 20:58:00,73.2,61.2,29.87,SW,236,0.0,3.0,66,0.00,,---,0.00,VWS V14.01,2013-06-17 00:58:00,
2013-06-16 20:59:00,73.2,61.2,29.87,SW,236,0.0,3.0,66,0.00,,---,0.00,VWS V14.01,2013-06-17 00:59:00,
2013-06-16 21:02:00,73.0,61.0,29.88,SW,233,1.0,3.0,66,0.00,,---,0.00,VWS V14.01,2013-06-17 01:02:00,
2013-06-16 21:03:00,73.0,61.0,29.88,SW,233,0.0,5.0,66,0.00,,---,0.00,VWS V14.01,2013-06-17 01:03:00,
2013-06-16 21:04:00,73.0,61.0,29.88,SW,233,0.0,5.0,66,0.00,,---,0.00,VWS V14.01,2013-06-17 01:04:00,
2013-06-16 21:07:00,73.0,61.0,29.88,SW,232,0.0,4.0,66,0.00,,---,0.00,VWS V14.01,2013-06-17 01:07:00,
2013-06-16 21:08:00,72.8,61.2,29.88,SW,232,0.0,1.0,67,0.00,,---,0.00,VWS V14.01,2013-06-17 01:08:00,
2013-06-16 21:09:00,72.8,61.2,29.88,SW,232,0.0,1.0,67,0.00,,---,0.00,VWS V14.01,2013-06-17 01:09:00,
2013-06-16 21:12:00,72.8,61.2,29.88,SSW,199,0.0,0.0,67,0.00,,---,0.00,VWS V14.01,2013-06-17 01:12:00,
2013-06-16 21:13:00,72.8,61.2,29.88,SSW,199,2.0,3.0,67,0.00,,---,0.00,VWS V14.01,2013-06-17 01:13:00,
2013-06-16 21:14:00,72.8,61.2,29.88,SSW,199,2.0,3.0,67,0.00,,---,0.00,VWS V14.01,2013-06-17 01:14:00,
2013-06-16 21:17:00,72.7,61.1,29.88,SSW,204,2.0,4.0,67,0.00,,---,0.00,VWS V14.01,2013-06-17 01:17:00,
2013-06-16 21:18:00,72.7,61.1,29.88,SSW,204,0.0,2.0,67,0.00,,---,0.00,VWS V14.01,2013-06-17 01:18:00,
2013-06-16 21:19:00,72.7,61.1,29.88,SSW,204,0.0,0.0,67,0.00,,---,0.00,VWS V14.01,2013-06-17 01:19:00,
2013-06-16 21:22:00,72.5,60.9,29.88,SSW,204,0.0,4.0,67,0.00,,---,0.00,VWS V14.01,2013-06-17 01:22:00,
2013-06-16 21:23:00,72.5,60.9,29.88,SSW,204,1.0,3.0,67,0.00,,---,0.00,VWS V14.01,2013-06-17 01:23:00,
2013-06-16 21:24:00,72.5,60.9,29.88,SSW,204,2.0,3.0,67,0.00,,---,0.00,VWS V14.01,2013-06-17 01:24:00,
2013-06-16 21:27:00,72.3,60.7,29.88,SSW,204,1.0,1.0,67,0.00,,---,0.00,VWS V14.01,2013-06-17 01:27:00,
2013-06-16 21:29:00,72.3,60.7,29.88,SSW,204,4.0,4.0,67,0.00,,---,0.00,VWS V14.01,2013-06-17 01:29:00,
2013-06-16 21:32:00,72.1,61.0,29.89,SSW,204,0.0,0.0,68,0.00,,---,0.00,VWS V14.01,2013-06-17 01:32:00,
2013-06-16 21:34:00,72.1,61.0,29.89,SSW,204,1.0,4.0,68,0.00,,---,0.00,VWS V14.01,2013-06-17 01:34:00,
2013-06-16 21:38:00,71.8,60.7,29.89,SSW,202,3.0,5.0,68,0.00,,---,0.00,VWS V14.01,2013-06-17 01:38:00,
2013-06-16 21:39:00,71.8,60.7,29.89,SSW,202,0.0,4.0,68,0.00,,---,0.00,VWS V14.01,2013-06-17 01:39:00,
2013-06-16 21:43:00,71.6,60.5,29.89,SSW,202,0.0,0.0,68,0.00,,---,0.00,VWS V14.01,2013-06-17 01:43:00,
2013-06-16 21:44:00,71.6,60.5,29.89,SSW,202,2.0,4.0,68,0.00,,---,0.00,VWS V14.01,2013-06-17 01:44:00,
2013-06-16 21:48:00,71.3,60.6,29.89,SSW,202,0.0,0.0,69,0.00,,---,0.00,VWS V14.01,2013-06-17 01:48:00,
2013-06-16 21:49:00,71.3,60.6,29.89,SSW,202,4.0,4.0,69,0.00,,---,0.00,VWS V14.01,2013-06-17 01:49:00,
2013-06-16 21:53:00,71.1,60.4,29.89,SW,215,3.0,6.0,69,0.00,,---,0.00,VWS V14.01,2013-06-17 01:53:00,
2013-06-16 21:54:00,71.1,60.4,29.89,SW,231,4.0,6.0,69,0.00,,---,0.00,VWS V14.01,2013-06-17 01:54:00,
2013-06-16 21:58:00,70.9,60.6,29.89,SW,232,0.0,1.0,70,0.00,,---,0.00,VWS V14.01,2013-06-17 01:58:00,
2013-06-16 21:59:00,70.9,60.6,29.89,SW,232,0.0,3.0,70,0.00,,---,0.00,VWS V14.01,2013-06-17 01:59:00,
2013-06-16 22:03:00,70.8,60.5,29.89,SW,232,1.0,1.0,70,0.00,,---,0.00,VWS V14.01,2013-06-17 02:03:00,
2013-06-16 22:04:00,70.8,60.5,29.89,SW,225,1.0,4.0,70,0.00,,---,0.00,VWS V14.01,2013-06-17 02:04:00,
2013-06-16 22:08:00,70.6,60.3,29.89,WSW,248,0.0,3.0,70,0.00,,---,0.00,VWS V14.01,2013-06-17 02:08:00,
2013-06-16 22:09:00,70.6,60.3,29.89,WSW,248,0.0,0.0,70,0.00,,---,0.00,VWS V14.01,2013-06-17 02:09:00,
2013-06-16 22:10:00,70.6,60.3,29.89,WSW,248,0.0,0.0,70,0.00,,---,0.00,VWS V14.01,2013-06-17 02:10:00,
2013-06-16 22:14:00,70.6,60.3,29.89,WSW,248,0.0,1.0,70,0.00,,---,0.00,VWS V14.01,2013-06-17 02:14:00,
2013-06-16 22:15:00,70.6,60.3,29.89,WSW,248,0.0,0.0,70,0.00,,---,0.00,VWS V14.01,2013-06-17 02:15:00,
2013-06-16 22:19:00,70.6,60.3,29.89,SW,232,2.0,2.0,70,0.00,,---,0.00,VWS V14.01,2013-06-17 02:19:00,
2013-06-16 22:20:00,70.6,60.3,29.89,SW,232,0.0,2.0,70,0.00,,---,0.00,VWS V14.01,2013-06-17 02:20:00,
2013-06-16 22:24:00,70.4,60.2,29.89,SW,232,0.0,2.0,70,0.00,,---,0.00,VWS V14.01,2013-06-17 02:24:00,
2013-06-16 22:25:00,70.4,60.2,29.89,SW,232,0.0,0.0,70,0.00,,---,0.00,VWS V14.01,2013-06-17 02:25:00,
2013-06-16 22:29:00,70.4,60.2,29.89,SW,232,0.0,0.0,70,0.00,,---,0.00,VWS V14.01,2013-06-17 02:29:00,
2013-06-16 22:30:00,70.4,60.2,29.89,SW,232,0.0,0.0,70,0.00,,---,0.00,VWS V14.01,2013-06-17 02:30:00,
2013-06-16 22:34:00,70.4,60.2,29.89,SW,232,0.0,0.0,70,0.00,,---,0.00,VWS V14.01,2013-06-17 02:34:00,
2013-06-16 22:35:00,70.4,60.2,29.89,SW,232,0.0,1.0,70,0.00,,---,0.00,VWS V14.01,2013-06-17 02:35:00,
2013-06-16 22:36:00,70.4,60.2,29.89,SW,232,3.0,3.0,70,0.00,,---,0.00,VWS V14.01,2013-06-17 02:36:00,
2013-06-16 22:39:00,70.3,60.1,29.89,SW,232,2.0,2.0,70,0.00,,---,0.00,VWS V14.01,2013-06-17 02:39:00,
2013-06-16 22:40:00,70.3,60.1,29.89,SW,232,3.0,3.0,70,0.00,,---,0.00,VWS V14.01,2013-06-17 02:40:00,
2013-06-16 22:41:00,70.3,60.1,29.89,SW,232,2.0,4.0,70,0.00,,---,0.00,VWS V14.01,2013-06-17 02:41:00,
2013-06-16 22:44:00,70.3,60.1,29.89,SW,232,0.0,0.0,70,0.00,,---,0.00,VWS V14.01,2013-06-17 02:44:00,
2013-06-16 22:45:00,70.3,60.1,29.89,SW,232,2.0,2.0,70,0.00,,---,0.00,VWS V14.01,2013-06-17 02:45:00,
2013-06-16 22:46:00,70.3,60.1,29.89,SW,232,0.0,0.0,70,0.00,,---,0.00,VWS V14.01,2013-06-17 02:46:00,
2013-06-16 22:49:00,70.1,59.9,29.89,SW,232,1.0,1.0,70,0.00,,---,0.00,VWS V14.01,2013-06-17 02:49:00,
2013-06-16 22:50:00,70.1,59.9,29.89,SW,232,0.0,1.0,70,0.00,,---,0.00,VWS V14.01,2013-06-17 02:50:00,
2013-06-16 22:51:00,70.1,60.3,29.89,SW,232,0.0,0.0,71,0.00,,---,0.00,VWS V14.01,2013-06-17 02:51:00,
2013-06-16 22:54:00,70.1,60.3,29.89,SW,232,3.0,3.0,71,0.00,,---,0.00,VWS V14.01,2013-06-17 02:54:00,
2013-06-16 22:55:00,70.1,60.3,29.89,SW,232,0.0,3.0,71,0.00,,---,0.00,VWS V14.01,2013-06-17 02:55:00,
2013-06-16 22:56:00,69.9,60.1,29.89,SW,232,0.0,0.0,71,0.00,,---,0.00,VWS V14.01,2013-06-17 02:56:00,
2013-06-16 22:59:00,69.9,60.1,29.89,SW,232,1.0,2.0,71,0.00,,---,0.00,VWS V14.01,2013-06-17 02:59:00,
2013-06-16 23:00:00,69.9,60.1,29.89,SW,232,3.0,5.0,71,0.00,,---,0.00,VWS V14.01,2013-06-17 03:00:00,
2013-06-16 23:01:00,69.9,60.1,29.89,SW,232,3.0,3.0,71,0.00,,---,0.00,VWS V14.01,2013-06-17 03:01:00,
2013-06-16 23:04:00,69.9,60.1,29.89,SW,232,0.0,0.0,71,0.00,,---,0.00,VWS V14.01,2013-06-17 03:04:00,
2013-06-16 23:05:00,69.9,60.1,29.89,SW,232,0.0,0.0,71,0.00,,---,0.00,VWS V14.01,2013-06-17 03:05:00,
2013-06-16 23:06:00,69.8,60.0,29.89,SW,232,0.0,0.0,71,0.00,,---,0.00,VWS V14.01,2013-06-17 03:06:00,
2013-06-16 23:09:00,69.8,60.0,29.89,SW,232,2.0,2.0,71,0.00,,---,0.00,VWS V14.01,2013-06-17 03:09:00,
2013-06-16 23:10:00,69.8,60.0,29.89,SW,232,0.0,0.0,71,0.00,,---,0.00,VWS V14.01,2013-06-17 03:10:00,
2013-06-16 23:11:00,69.8,60.0,29.89,SW,232,1.0,1.0,71,0.00,,---,0.00,VWS V14.01,2013-06-17 03:11:00,
2013-06-16 23:14:00,69.8,60.4,29.89,SW,232,0.0,1.0,72,0.00,,---,0.00,VWS V14.01,2013-06-17 03:14:00,
2013-06-16 23:15:00,69.8,60.4,29.89,SW,232,0.0,4.0,72,0.00,,---,0.00,VWS V14.01,2013-06-17 03:15:00,
2013-06-16 23:16:00,69.6,60.2,29.89,SW,232,0.0,0.0,72,0.00,,---,0.00,VWS V14.01,2013-06-17 03:16:00,
2013-06-16 23:20:00,69.6,60.2,29.88,SW,232,1.0,3.0,72,0.00,,---,0.00,VWS V14.01,2013-06-17 03:20:00,
2013-06-16 23:21:00,69.6,60.2,29.88,SW,232,5.0,5.0,72,0.00,,---,0.00,VWS V14.01,2013-06-17 03:21:00,
2013-06-16 23:25:00,69.6,60.2,29.88,SW,232,0.0,1.0,72,0.00,,---,0.00,VWS V14.01,2013-06-17 03:25:00,
2013-06-16 23:26:00,69.4,60.0,29.88,SW,232,0.0,0.0,72,0.00,,---,0.00,VWS V14.01,2013-06-17 03:26:00,
2013-06-16 23:30:00,69.4,60.0,29.88,SW,232,0.0,0.0,72,0.00,,---,0.00,VWS V14.01,2013-06-17 03:30:00,
2013-06-16 23:31:00,69.4,60.0,29.88,SW,232,0.0,0.0,72,0.00,,---,0.00,VWS V14.01,2013-06-17 03:31:00,
2013-06-16 23:35:00,69.4,60.0,29.87,SW,232,4.0,5.0,72,0.00,,---,0.00,VWS V14.01,2013-06-17 03:35:00,
2013-06-16 23:36:00,69.4,60.0,29.87,SW,232,4.0,5.0,72,0.00,,---,0.00,VWS V14.01,2013-06-17 03:36:00,
2013-06-16 23:40:00,69.3,59.9,29.87,WSW,241,2.0,5.0,72,0.00,,---,0.00,VWS V14.01,2013-06-17 03:40:00,
2013-06-16 23:41:00,69.3,59.9,29.87,WSW,241,2.0,5.0,72,0.00,,---,0.00,VWS V14.01,2013-06-17 03:41:00,
2013-06-16 23:42:00,69.3,59.9,29.87,WSW,241,3.0,6.0,72,0.00,,---,0.00,VWS V14.01,2013-06-17 03:42:00,
2013-06-16 23:45:00,69.3,60.3,29.87,WSW,241,2.0,2.0,73,0.00,,---,0.00,VWS V14.01,2013-06-17 03:45:00,
2013-06-16 23:46:00,69.1,60.1,29.87,WSW,241,1.0,3.0,73,0.00,,---,0.00,VWS V14.01,2013-06-17 03:46:00,
2013-06-16 23:47:00,69.1,60.1,29.87,WSW,241,3.0,5.0,73,0.00,,---,0.00,VWS V14.01,2013-06-17 03:47:00,
2013-06-16 23:50:00,69.1,60.1,29.88,SSW,210,5.0,10.0,73,0.00,,---,0.00,VWS V14.01,2013-06-17 03:50:00,
2013-06-16 23:51:00,69.1,60.1,29.88,SSW,212,1.0,10.0,73,0.00,,---,0.00,VWS V14.01,2013-06-17 03:51:00,
2013-06-16 23:52:00,69.1,60.1,29.88,SSW,212,0.0,0.0,73,0.00,,---,0.00,VWS V14.01,2013-06-17 03:52:00,
2013-06-16 23:55:00,69.1,60.5,29.88,SSW,213,0.0,4.0,74,0.00,,---,0.00,VWS V14.01,2013-06-17 03:55:00,
2013-06-16 23:56:00,69.1,60.5,29.88,SSW,213,1.0,4.0,74,0.00,,---,0.00,VWS V14.01,2013-06-17 03:56:00,
2013-06-16 23:57:00,69.1,60.5,29.88,SSW,213,5.0,5.0,74,0.00,,---,0.00,VWS V14.01,2013-06-17 03:57:00,